Time;durP1;ratioP1;P1;durP2;ratioP2;P2;SDS_P1;SDS_P2;PMS_P1;PMS_P2;Temp;Humidity;BMP_temperature;BMP_pressure;BME280_temperature;BME280_humidity;BME280_pressure;Samples;Min_cycle;Max_cycle;Signal;HPM_P1;HPM_P2
2021/01/16 00:02:14;;;;;;;1.95;1.77;;;21.70;28.90;;;;;;5112024;28;20040;-59
2021/01/16 00:04:41;;;;;;;2.13;1.92;;;21.70;28.90;;;;;;5112152;28;20321;-59
2021/01/16 00:07:07;;;;;;;2.20;2.00;;;21.70;28.90;;;;;;5112010;28;20044;-59
2021/01/16 00:09:34;;;;;;;2.65;2.17;;;21.70;28.90;;;;;;5112375;28;20455;-59
2021/01/16 00:12:01;;;;;;;2.05;1.90;;;21.70;28.90;;;;;;5112618;28;20466;-59
2021/01/16 00:14:27;;;;;;;2.67;2.05;;;21.70;28.90;;;;;;5112184;28;20073;-59
2021/01/16 00:16:54;;;;;;;2.50;2.22;;;21.60;29.00;;;;;;5112335;28;20130;-59
2021/01/16 00:19:21;;;;;;;2.17;1.98;;;21.60;28.90;;;;;;5092279;28;20044;-58
2021/01/16 00:21:47;;;;;;;1.95;1.73;;;21.60;28.90;;;;;;5112304;28;20449;-59
2021/01/16 00:24:14;;;;;;;2.22;2.03;;;21.60;28.90;;;;;;5111787;28;20400;-59
2021/01/16 00:26:41;;;;;;;2.30;2.05;;;21.60;28.90;;;;;;5112228;28;20560;-59
2021/01/16 00:29:07;;;;;;;2.92;2.35;;;21.60;28.90;;;;;;5111881;28;20083;-59
2021/01/16 00:31:34;;;;;;;2.25;2.05;;;21.60;28.90;;;;;;5112018;28;20079;-58
2021/01/16 00:34:01;;;;;;;2.03;1.92;;;21.60;28.90;;;;;;5111409;28;20052;-59
2021/01/16 00:36:28;;;;;;;2.22;2.03;;;21.60;28.90;;;;;;5112375;28;20086;-58
2021/01/16 00:38:54;;;;;;;1.83;1.73;;;21.60;28.90;;;;;;5111737;28;20051;-59
2021/01/16 00:41:21;;;;;;;1.92;1.83;;;21.60;29.00;;;;;;5093372;28;20214;-59
2021/01/16 00:43:47;;;;;;;1.98;1.70;;;21.60;28.90;;;;;;5111592;28;20083;-58
2021/01/16 00:46:14;;;;;;;1.85;1.75;;;21.60;29.00;;;;;;5111895;28;20072;-58
2021/01/16 00:48:41;;;;;;;3.35;2.33;;;21.60;29.00;;;;;;5111417;28;20048;-58
2021/01/16 00:51:08;;;;;;;2.65;2.35;;;21.50;28.90;;;;;;5093109;28;20130;-59
2021/01/16 00:53:35;;;;;;;2.00;1.90;;;21.60;29.00;;;;;;5092921;28;20305;-58
2021/01/16 00:56:01;;;;;;;2.33;2.13;;;21.50;28.90;;;;;;5110903;28;20047;-59
2021/01/16 00:58:29;;;;;;;2.22;2.08;;;21.60;29.00;;;;;;5111221;28;20048;-58
2021/01/16 01:00:56;;;;;;;2.30;2.10;;;21.60;28.90;;;;;;5111029;28;20048;-58
2021/01/16 01:03:24;;;;;;;2.78;2.22;;;21.60;28.90;;;;;;5111679;28;20046;-59
2021/01/16 01:05:51;;;;;;;2.55;2.35;;;21.60;28.90;;;;;;5111022;28;20112;-59
2021/01/16 01:08:26;;;;;;;1.80;1.70;;;21.60;28.90;;;;;;5111474;28;20053;-58
2021/01/16 01:10:53;;;;;;;3.13;2.28;;;21.60;28.90;;;;;;5111341;28;20444;-59
2021/01/16 01:13:19;;;;;;;2.65;2.05;;;21.60;28.90;;;;;;5111028;28;20075;-59
2021/01/16 01:15:46;;;;;;;2.15;1.80;;;21.60;29.00;;;;;;5092965;28;20105;-59
2021/01/16 01:18:13;;;;;;;2.10;1.90;;;21.50;28.90;;;;;;5111421;28;20046;-59
2021/01/16 01:20:39;;;;;;;2.30;2.03;;;21.50;28.90;;;;;;5110471;28;20113;-58
2021/01/16 01:23:07;;;;;;;2.30;2.10;;;21.50;28.90;;;;;;5109866;28;20489;-59
2021/01/16 01:25:33;;;;;;;1.67;1.58;;;21.50;28.90;;;;;;5109624;28;20131;-57
2021/01/16 01:28:01;;;;;;;2.13;1.70;;;21.50;28.90;;;;;;5109852;28;20253;-59
2021/01/16 01:30:30;;;;;;;1.88;1.77;;;21.50;28.90;;;;;;5108331;28;20116;-58
2021/01/16 01:32:58;;;;;;;1.95;1.80;;;21.50;28.90;;;;;;5110039;28;20076;-58
2021/01/16 01:35:25;;;;;;;1.77;1.65;;;21.50;28.90;;;;;;5110600;28;20548;-58
2021/01/16 01:37:55;;;;;;;2.10;1.83;;;21.50;28.90;;;;;;5110044;28;20092;-58
2021/01/16 01:40:24;;;;;;;1.58;1.48;;;21.50;29.00;;;;;;5110258;28;20056;-59
2021/01/16 01:42:53;;;;;;;2.58;2.35;;;21.50;29.00;;;;;;5110435;28;20069;-62
2021/01/16 01:45:21;;;;;;;1.92;1.77;;;21.50;28.90;;;;;;5110783;28;20523;-59
2021/01/16 01:47:48;;;;;;;2.10;1.83;;;21.40;28.90;;;;;;5110619;28;20109;-58
2021/01/16 01:50:18;;;;;;;1.77;1.67;;;21.50;28.90;;;;;;5110215;28;20047;-58
2021/01/16 01:52:50;;;;;;;1.70;1.60;;;21.50;28.90;;;;;;5110691;28;20099;-59
2021/01/16 01:55:18;;;;;;;2.50;2.30;;;21.50;28.90;;;;;;5110043;28;20043;-59
2021/01/16 01:57:54;;;;;;;2.08;1.88;;;21.40;28.80;;;;;;5110878;28;20070;-58
2021/01/16 02:00:22;;;;;;;2.90;1.95;;;21.50;28.90;;;;;;5092138;28;20092;-58
2021/01/16 02:02:50;;;;;;;1.63;1.52;;;21.50;28.90;;;;;;5110752;28;20071;-58
2021/01/16 02:05:17;;;;;;;1.95;1.80;;;21.40;28.80;;;;;;5110402;28;20062;-59
2021/01/16 02:07:46;;;;;;;2.72;2.42;;;21.40;28.90;;;;;;5110840;28;20351;-59
2021/01/16 02:10:22;;;;;;;1.85;1.75;;;21.40;28.90;;;;;;5110332;28;20177;-59
2021/01/16 02:12:54;;;;;;;2.03;1.83;;;21.40;28.90;;;;;;5110182;28;20500;-59
2021/01/16 02:15:44;;;;;;;2.10;1.90;;;21.40;28.90;;;;;;5109753;28;20083;-59
2021/01/16 02:18:33;;;;;;;2.23;2.10;;;21.40;28.90;;;;;;5109595;28;20044;-59
2021/01/16 02:21:02;;;;;;;2.22;2.03;;;21.40;28.90;;;;;;5109576;28;20325;-59
2021/01/16 02:23:33;;;;;;;1.83;1.67;;;21.30;28.90;;;;;;5110277;28;20035;-59
2021/01/16 02:26:39;;;;;;;1.60;1.50;;;21.30;28.90;;;;;;5109215;28;20087;-58
2021/01/16 02:29:10;;;;;;;1.83;1.73;;;21.30;28.90;;;;;;5110073;28;20040;-58
2021/01/16 02:31:41;;;;;;;1.75;1.65;;;21.30;28.90;;;;;;5109655;28;20047;-58
2021/01/16 02:34:15;;;;;;;1.90;1.70;;;21.40;29.00;;;;;;5110238;28;20047;-59
2021/01/16 02:37:13;;;;;;;2.00;1.80;;;21.30;28.90;;;;;;5109223;28;20493;-59
2021/01/16 02:39:45;;;;;;;1.95;1.65;;;21.30;28.90;;;;;;5109797;28;20077;-59
2021/01/16 02:42:27;;;;;;;2.40;1.85;;;21.30;29.00;;;;;;5111601;28;20040;-58
2021/01/16 02:45:13;;;;;;;3.25;1.92;;;21.30;29.00;;;;;;5116385;28;20086;-58
2021/01/16 02:47:51;;;;;;;1.80;1.60;;;21.30;29.00;;;;;;5115933;28;20078;-59
2021/01/16 02:50:22;;;;;;;2.28;2.08;;;21.30;28.90;;;;;;5116637;28;20274;-62
2021/01/16 02:52:50;;;;;;;1.58;1.42;;;21.30;28.90;;;;;;5116499;28;20131;-59
2021/01/16 02:55:17;;;;;;;1.70;1.60;;;21.30;28.90;;;;;;5116692;28;20052;-59
2021/01/16 02:57:45;;;;;;;1.60;1.50;;;21.30;28.90;;;;;;5098290;28;20525;-59
2021/01/16 03:00:15;;;;;;;1.58;1.48;;;21.30;28.90;;;;;;5116584;28;20423;-58
2021/01/16 03:02:41;;;;;;;1.77;1.50;;;21.30;28.90;;;;;;5116446;28;20069;-58
2021/01/16 03:05:09;;;;;;;1.77;1.52;;;21.30;29.00;;;;;;5116511;28;20051;-59
2021/01/16 03:07:36;;;;;;;2.10;1.90;;;21.30;29.00;;;;;;5096068;28;20484;-58
2021/01/16 03:10:09;;;;;;;1.48;1.38;;;21.30;29.00;;;;;;5114721;28;20069;-59
2021/01/16 03:12:36;;;;;;;2.15;1.52;;;21.30;29.00;;;;;;5114246;28;20051;-58
2021/01/16 03:15:14;;;;;;;1.40;1.30;;;21.30;29.00;;;;;;5113796;28;20138;-58
2021/01/16 03:17:47;;;;;;;1.98;1.60;;;21.20;29.00;;;;;;5096123;28;20717;-59
2021/01/16 03:20:24;;;;;;;1.48;1.38;;;21.30;29.00;;;;;;5095961;28;20048;-58
2021/01/16 03:22:53;;;;;;;1.85;1.65;;;21.30;29.10;;;;;;5114229;28;20083;-58
2021/01/16 03:25:21;;;;;;;1.80;1.70;;;21.30;29.10;;;;;;5113357;28;20066;-59
2021/01/16 03:27:49;;;;;;;1.65;1.55;;;21.30;29.10;;;;;;5114273;28;20595;-58
2021/01/16 03:30:18;;;;;;;1.70;1.40;;;21.30;29.10;;;;;;5113651;28;20454;-59
2021/01/16 03:32:46;;;;;;;1.38;1.27;;;21.30;29.10;;;;;;5113286;28;20512;-59
2021/01/16 03:35:16;;;;;;;1.60;1.50;;;21.30;29.10;;;;;;5114099;28;20091;-59
2021/01/16 03:37:44;;;;;;;1.63;1.52;;;21.20;29.10;;;;;;5113988;28;20413;-59
2021/01/16 03:40:13;;;;;;;1.55;1.45;;;21.20;29.10;;;;;;5114022;28;20083;-59
2021/01/16 03:42:40;;;;;;;1.50;1.40;;;21.30;29.10;;;;;;5114020;28;20078;-59
2021/01/16 03:45:09;;;;;;;1.50;1.40;;;21.30;29.10;;;;;;5113017;28;20160;-57
2021/01/16 03:47:36;;;;;;;1.27;1.20;;;21.30;29.10;;;;;;5114319;28;20083;-59
2021/01/16 03:50:06;;;;;;;1.52;1.42;;;21.30;29.10;;;;;;5113336;28;20068;-58
2021/01/16 03:52:35;;;;;;;1.35;1.25;;;21.30;29.10;;;;;;5114078;28;20104;-58
2021/01/16 03:55:03;;;;;;;1.55;1.38;;;21.30;29.00;;;;;;5110532;28;20112;-59
2021/01/16 03:57:30;;;;;;;1.52;1.42;;;21.30;29.10;;;;;;5110156;28;20044;-59
2021/01/16 03:59:57;;;;;;;1.52;1.42;;;21.30;29.10;;;;;;5110457;28;20504;-59
2021/01/16 04:02:24;;;;;;;1.73;1.40;;;21.30;29.10;;;;;;5110382;28;20130;-59
2021/01/16 04:04:51;;;;;;;1.65;1.55;;;21.30;29.10;;;;;;5110503;28;20039;-58
2021/01/16 04:07:18;;;;;;;1.00;1.00;;;21.30;29.10;;;;;;5110637;28;20164;-62
2021/01/16 04:09:46;;;;;;;2.28;1.65;;;21.20;29.10;;;;;;5110330;28;20135;-58
2021/01/16 04:12:13;;;;;;;1.42;1.33;;;21.20;29.10;;;;;;5110577;28;20130;-58
2021/01/16 04:14:40;;;;;;;1.50;1.40;;;21.20;29.10;;;;;;5109960;28;20394;-58
2021/01/16 04:17:08;;;;;;;1.08;1.00;;;21.20;29.10;;;;;;5092380;28;20136;-59
2021/01/16 04:19:35;;;;;;;1.25;1.20;;;21.20;29.10;;;;;;5110021;28;20040;-58
2021/01/16 04:22:03;;;;;;;1.50;1.38;;;21.20;29.10;;;;;;5091728;28;20058;-58
2021/01/16 04:24:30;;;;;;;1.55;1.42;;;21.20;29.10;;;;;;5110480;28;20143;-58
2021/01/16 04:26:57;;;;;;;1.23;1.13;;;21.20;29.10;;;;;;5109433;28;20055;-58
2021/01/16 04:29:24;;;;;;;1.33;1.23;;;21.20;29.10;;;;;;5108986;28;20523;-59
2021/01/16 04:31:51;;;;;;;1.50;1.40;;;21.20;29.20;;;;;;5092153;28;20405;-59
2021/01/16 04:34:18;;;;;;;1.25;1.20;;;21.20;29.10;;;;;;5109239;28;20052;-58
2021/01/16 04:36:45;;;;;;;1.70;1.60;;;21.20;29.20;;;;;;5110276;28;20051;-59
2021/01/16 04:39:12;;;;;;;1.40;1.30;;;21.20;29.20;;;;;;5109789;28;20549;-59
2021/01/16 04:41:39;;;;;;;1.30;1.20;;;21.20;29.20;;;;;;5110580;28;20079;-59
2021/01/16 04:44:06;;;;;;;1.45;1.30;;;21.20;29.20;;;;;;5109032;28;20044;-59
2021/01/16 04:46:33;;;;;;;1.60;1.50;;;21.20;29.20;;;;;;5109965;28;20103;-58
2021/01/16 04:49:05;;;;;;;1.50;1.40;;;21.20;29.20;;;;;;5109446;28;20055;-59
2021/01/16 04:51:35;;;;;;;1.90;1.75;;;21.20;29.10;;;;;;5109589;28;20086;-59
2021/01/16 04:54:03;;;;;;;1.65;1.20;;;21.20;29.10;;;;;;5109036;28;20050;-59
2021/01/16 04:56:34;;;;;;;1.08;0.98;;;21.20;29.10;;;;;;5075119;28;20477;-59
2021/01/16 04:59:02;;;;;;;1.20;1.10;;;21.20;29.10;;;;;;5091209;28;20125;-59
2021/01/16 05:01:29;;;;;;;1.33;1.23;;;21.20;29.10;;;;;;5109584;28;20088;-62
2021/01/16 05:03:57;;;;;;;1.50;1.40;;;21.20;29.10;;;;;;5109195;28;20059;-58
2021/01/16 05:06:26;;;;;;;1.45;1.30;;;21.20;29.10;;;;;;5108372;28;20550;-59
2021/01/16 05:08:55;;;;;;;1.13;1.02;;;21.20;29.10;;;;;;5109519;28;20062;-58
2021/01/16 05:11:42;;;;;;;1.55;1.45;;;21.20;29.20;;;;;;5090767;28;20088;-59
2021/01/16 05:14:14;;;;;;;1.77;1.48;;;21.20;29.60;;;;;;5109124;28;20050;-58
2021/01/16 05:16:54;;;;;;;1.40;1.30;;;21.20;29.10;;;;;;5108640;28;20055;-59
2021/01/16 05:19:26;;;;;;;1.83;1.48;;;21.10;29.10;;;;;;5109504;28;20075;-59
2021/01/16 05:21:54;;;;;;;1.30;1.20;;;21.10;29.10;;;;;;5090694;28;20048;-59
2021/01/16 05:24:21;;;;;;;1.60;1.50;;;21.20;29.20;;;;;;5109753;28;20136;-58
2021/01/16 05:27:04;;;;;;;1.58;1.45;;;21.10;29.20;;;;;;5108377;28;20079;-59
2021/01/16 05:29:33;;;;;;;1.30;1.20;;;21.20;29.20;;;;;;5109020;28;20313;-59
2021/01/16 05:32:04;;;;;;;1.45;1.35;;;21.10;29.20;;;;;;5108848;28;20572;-59
2021/01/16 05:34:32;;;;;;;;;;;21.10;29.20;;;;;;5109040;28;20074;-58
2021/01/16 05:36:59;;;;;;;2.20;1.10;;;21.10;29.20;;;;;;5108330;28;19970;-59
2021/01/16 05:39:29;;;;;;;1.17;1.08;;;21.10;29.20;;;;;;5108910;28;20487;-59
2021/01/16 05:41:59;;;;;;;1.07;1.07;;;21.10;29.20;;;;;;5108133;28;20077;-58
2021/01/16 05:44:27;;;;;;;1.50;1.40;;;21.10;29.20;;;;;;5109007;28;20083;-58
2021/01/16 05:46:55;;;;;;;1.50;1.40;;;21.20;29.20;;;;;;5108428;28;20360;-58
2021/01/16 05:49:23;;;;;;;0.80;0.80;;;21.20;29.20;;;;;;5108834;28;20541;-58
2021/01/16 05:51:51;;;;;;;1.25;1.20;;;21.20;29.10;;;;;;5108611;28;20079;-59
2021/01/16 05:54:22;;;;;;;1.35;1.25;;;21.20;29.10;;;;;;5108531;28;20148;-59
2021/01/16 05:56:49;;;;;;;1.42;1.33;;;21.20;29.10;;;;;;5107342;28;20155;-58
2021/01/16 05:59:18;;;;;;;1.27;1.15;;;21.20;29.20;;;;;;5089743;28;20064;-58
2021/01/16 06:01:50;;;;;;;0.95;0.90;;;21.20;29.20;;;;;;5107901;28;20092;-59
2021/01/16 06:04:19;;;;;;;1.00;1.00;;;21.10;29.10;;;;;;5107441;28;20454;-59
2021/01/16 06:06:46;;;;;;;1.60;1.35;;;21.20;29.20;;;;;;5107741;28;20109;-60
2021/01/16 06:09:15;;;;;;;1.23;1.23;;;21.10;29.10;;;;;;5108098;28;20645;-59
2021/01/16 06:11:47;;;;;;;1.17;1.00;;;21.10;29.10;;;;;;5108247;28;20488;-59
2021/01/16 06:14:15;;;;;;;1.20;1.20;;;21.10;29.00;;;;;;5107571;28;20051;-59
2021/01/16 06:16:53;;;;;;;1.70;1.55;;;21.10;29.00;;;;;;5088215;28;20132;-58
2021/01/16 06:19:25;;;;;;;1.05;0.98;;;21.10;28.90;;;;;;5108319;28;20050;-58
2021/01/16 06:21:52;;;;;;;1.50;1.33;;;21.10;28.90;;;;;;5107451;28;20099;-58
2021/01/16 06:24:21;;;;;;;2.13;1.70;;;21.10;28.90;;;;;;5108267;28;20067;-58
2021/01/16 06:26:55;;;;;;;1.70;1.60;;;21.10;28.80;;;;;;5107701;28;20360;-59
2021/01/16 06:29:30;;;;;;;1.73;1.63;;;21.10;28.70;;;;;;5107849;28;20389;-59
2021/01/16 06:32:09;;;;;;;1.63;1.52;;;21.10;28.70;;;;;;5107991;28;20352;-62
2021/01/16 06:34:38;;;;;;;2.22;1.80;;;21.20;28.70;;;;;;5107592;28;20377;-59
2021/01/16 06:37:12;;;;;;;1.50;1.40;;;21.20;28.60;;;;;;5089680;28;20054;-58
2021/01/16 06:39:44;;;;;;;2.80;2.17;;;21.30;28.50;;;;;;5107584;28;20318;-59
2021/01/16 06:42:21;;;;;;;2.05;1.85;;;21.30;28.50;;;;;;5090063;28;20085;-58
2021/01/16 06:44:48;;;;;;;1.58;1.48;;;21.40;28.40;;;;;;5107788;28;20040;-59
2021/01/16 06:47:15;;;;;;;2.28;1.73;;;21.40;28.30;;;;;;5106959;28;20044;-58
2021/01/16 06:49:48;;;;;;;2.10;1.90;;;21.50;28.30;;;;;;5088647;28;20035;-62
2021/01/16 06:52:14;;;;;;;1.95;1.75;;;21.50;28.20;;;;;;5089538;28;20079;-59
2021/01/16 06:54:44;;;;;;;1.85;1.70;;;21.60;28.20;;;;;;5107483;28;20079;-61
2021/01/16 06:57:14;;;;;;;1.52;1.42;;;21.70;28.10;;;;;;5107994;28;20297;-61
2021/01/16 06:59:43;;;;;;;1.85;1.75;;;21.70;28.00;;;;;;5107561;28;20051;-61
2021/01/16 07:02:30;;;;;;;1.48;1.38;;;21.80;28.00;;;;;;5107182;28;20098;-60
2021/01/16 07:05:08;;;;;;;1.60;1.50;;;21.80;27.90;;;;;;5107938;28;20048;-61
2021/01/16 07:07:39;;;;;;;1.77;1.45;;;21.90;28.00;;;;;;5107705;28;20362;-61
2021/01/16 07:10:17;;;;;;;1.70;1.52;;;21.90;27.80;;;;;;5108164;28;20373;-60
2021/01/16 07:12:49;;;;;;;2.05;1.85;;;22.00;27.80;;;;;;5107933;28;20035;-60
2021/01/16 07:15:17;;;;;;;2.60;1.77;;;22.10;27.80;;;;;;5109219;28;20137;-60
2021/01/16 07:17:45;;;;;;;2.25;2.05;;;22.10;27.70;;;;;;5092047;28;20109;-60
2021/01/16 07:20:12;;;;;;;1.75;1.65;;;22.10;27.60;;;;;;5111211;28;20108;-61
2021/01/16 07:22:44;;;;;;;2.00;1.90;;;22.20;27.60;;;;;;5111230;28;20043;-61
2021/01/16 07:25:14;;;;;;;1.90;1.80;;;22.30;27.50;;;;;;5110994;28;20120;-61
2021/01/16 07:27:42;;;;;;;;;;;22.30;27.50;;;;;;5110908;28;20073;-60
2021/01/16 07:30:11;;;;;;;1.73;1.63;;;22.40;27.40;;;;;;5114905;28;20174;-61
2021/01/16 07:32:43;;;;;;;1.50;1.40;;;22.40;27.40;;;;;;5115590;28;20389;-61
2021/01/16 07:35:15;;;;;;;2.30;2.08;;;22.50;27.30;;;;;;5110892;28;20134;-61
2021/01/16 07:37:43;;;;;;;1.95;1.85;;;22.50;27.20;;;;;;5110709;28;20504;-60
2021/01/16 07:40:32;;;;;;;2.17;1.95;;;22.50;27.20;;;;;;5109995;28;20059;-61
2021/01/16 07:43:13;;;;;;;1.90;1.80;;;22.60;27.20;;;;;;5111038;28;20062;-59
2021/01/16 07:45:49;;;;;;;1.75;1.65;;;22.60;27.60;;;;;;5110885;28;20111;-59
2021/01/16 07:48:21;;;;;;;1.98;1.80;;;22.70;27.10;;;;;;5111327;28;20305;-58
2021/01/16 07:50:52;;;;;;;2.30;2.10;;;22.70;27.10;;;;;;5110730;28;20122;-59
2021/01/16 07:53:29;;;;;;;2.03;1.92;;;22.80;27.10;;;;;;5110161;28;20048;-59
2021/01/16 07:56:09;;;;;;;2.28;1.65;;;22.80;27.00;;;;;;5110328;28;20228;-59
2021/01/16 07:58:41;;;;;;;2.70;2.50;;;22.80;27.00;;;;;;5110385;28;20048;-58
2021/01/16 08:01:37;;;;;;;3.20;2.08;;;22.90;27.00;;;;;;5110802;28;20540;-58
2021/01/16 08:04:26;;;;;;;2.63;2.40;;;22.90;26.90;;;;;;5110716;28;20290;-59
2021/01/16 08:07:08;;;;;;;2.10;1.90;;;23.00;26.80;;;;;;5111159;28;20082;-59
2021/01/16 08:09:57;;;;;;;2.38;2.17;;;23.00;26.80;;;;;;5110120;28;20123;-59
2021/01/16 08:12:27;;;;;;;2.35;2.10;;;23.10;26.80;;;;;;5110541;28;20159;-59
2021/01/16 08:15:02;;;;;;;2.40;2.30;;;23.10;26.80;;;;;;5110653;28;20327;-59
2021/01/16 08:17:39;;;;;;;2.42;2.22;;;23.10;26.70;;;;;;5110343;28;20126;-60
2021/01/16 08:20:18;;;;;;;2.70;2.47;;;23.20;26.70;;;;;;5109964;28;20047;-64
2021/01/16 08:22:53;;;;;;;2.30;2.10;;;23.20;26.60;;;;;;5110381;28;20283;-61
2021/01/16 08:25:22;;;;;;;3.08;2.78;;;23.30;26.60;;;;;;5110416;28;20604;-61
2021/01/16 08:27:54;;;;;;;2.85;2.65;;;23.30;26.50;;;;;;5109881;28;20075;-61
2021/01/16 08:30:27;;;;;;;3.00;2.60;;;23.40;26.50;;;;;;5110180;28;20087;-61
2021/01/16 08:33:10;;;;;;;2.72;2.50;;;23.40;26.40;;;;;;5075339;28;20645;-61
2021/01/16 08:35:48;;;;;;;2.72;2.53;;;23.50;26.40;;;;;;5109122;28;20146;-61
2021/01/16 08:38:23;;;;;;;2.50;2.30;;;23.50;26.40;;;;;;5091161;28;20450;-64
2021/01/16 08:41:03;;;;;;;2.83;2.63;;;23.60;26.40;;;;;;5108738;28;20464;-61
2021/01/16 08:43:36;;;;;;;2.33;2.17;;;23.60;26.40;;;;;;5109774;28;20504;-60
2021/01/16 08:46:34;;;;;;;2.90;2.60;;;23.60;26.30;;;;;;5109800;28;20560;-61
2021/01/16 08:49:09;;;;;;;3.08;2.78;;;23.70;26.30;;;;;;5109454;28;20488;-61
2021/01/16 08:51:41;;;;;;;3.05;2.75;;;23.70;26.30;;;;;;5109833;28;20044;-61
2021/01/16 08:54:16;;;;;;;2.88;2.67;;;23.80;26.20;;;;;;5109520;28;20123;-62
2021/01/16 08:56:47;;;;;;;3.17;2.88;;;23.80;26.20;;;;;;5109748;28;20449;-61
2021/01/16 08:59:31;;;;;;;2.55;2.35;;;23.80;26.20;;;;;;5091040;28;20048;-61
2021/01/16 09:02:09;;;;;;;2.65;2.45;;;23.80;26.10;;;;;;5109560;28;20122;-61
2021/01/16 09:04:39;;;;;;;3.10;2.90;;;23.80;26.10;;;;;;5091416;28;20040;-59
2021/01/16 09:07:20;;;;;;;2.90;2.70;;;23.90;26.10;;;;;;5110143;28;20104;-61
2021/01/16 09:09:59;;;;;;;3.55;3.25;;;23.90;26.00;;;;;;5109177;28;20046;-59
2021/01/16 09:12:40;;;;;;;2.55;2.35;;;23.90;26.00;;;;;;5109923;28;20047;-59
2021/01/16 09:15:25;;;;;;;3.60;2.78;;;23.80;25.90;;;;;;5108657;28;20043;-59
2021/01/16 09:18:04;;;;;;;2.65;2.45;;;23.80;26.00;;;;;;5109327;28;20043;-59
2021/01/16 09:20:33;;;;;;;3.22;2.92;;;23.70;26.00;;;;;;5109194;28;20471;-60
2021/01/16 09:23:35;;;;;;;2.80;2.60;;;23.70;26.00;;;;;;5109421;28;20305;-59
2021/01/16 09:26:10;;;;;;;2.90;2.70;;;23.70;26.00;;;;;;5109057;28;20086;-59
2021/01/16 09:28:52;;;;;;;3.33;3.03;;;23.60;26.00;;;;;;5109230;28;20116;-59
2021/01/16 09:31:29;;;;;;;2.97;2.78;;;23.60;26.00;;;;;;5091730;28;20086;-59
2021/01/16 09:34:12;;;;;;;3.72;3.42;;;23.60;26.00;;;;;;5090771;28;20058;-59
2021/01/16 09:36:44;;;;;;;3.00;2.70;;;23.60;26.10;;;;;;5108858;28;20051;-59
2021/01/16 09:39:17;;;;;;;2.92;2.53;;;23.50;26.00;;;;;;5108775;28;20408;-59
2021/01/16 09:41:46;;;;;;;3.40;3.10;;;23.50;26.00;;;;;;5108644;28;20101;-59
2021/01/16 09:44:14;;;;;;;3.22;3.03;;;23.50;26.00;;;;;;5108808;28;20586;-59
2021/01/16 09:46:42;;;;;;;3.40;3.10;;;23.40;26.00;;;;;;5108302;28;20138;-59
2021/01/16 09:49:12;;;;;;;3.00;2.80;;;23.50;26.10;;;;;;5109028;28;20143;-59
2021/01/16 09:51:39;;;;;;;3.58;3.28;;;23.40;26.10;;;;;;5108004;28;20498;-58
2021/01/16 09:54:12;;;;;;;3.50;3.20;;;23.40;26.10;;;;;;5108604;28;20738;-58
2021/01/16 09:56:48;;;;;;;3.75;3.45;;;23.40;26.10;;;;;;5108385;28;20083;-59
2021/01/16 09:59:23;;;;;;;3.33;3.08;;;23.40;26.10;;;;;;5108754;28;20146;-59
2021/01/16 10:02:11;;;;;;;3.45;3.17;;;23.40;26.10;;;;;;5108525;28;20143;-58
2021/01/16 10:04:40;;;;;;;3.72;3.42;;;23.40;26.10;;;;;;5107453;28;20075;-59
2021/01/16 10:07:15;;;;;;;3.47;3.25;;;23.50;26.10;;;;;;5108158;28;20045;-59
2021/01/16 10:09:46;;;;;;;3.08;2.88;;;23.50;26.10;;;;;;5107452;28;20071;-59
2021/01/16 10:12:38;;;;;;;3.33;3.13;;;23.50;26.10;;;;;;5089867;28;20075;-59
2021/01/16 10:15:15;;;;;;;4.35;3.13;;;23.50;26.00;;;;;;5108010;28;20420;-59
2021/01/16 10:17:45;;;;;;;3.15;2.90;;;23.60;26.00;;;;;;5107712;28;20071;-59
2021/01/16 10:20:16;;;;;;;3.47;3.17;;;23.60;26.00;;;;;;5107333;28;20131;-59
2021/01/16 10:22:53;;;;;;;3.50;3.20;;;23.60;26.00;;;;;;5108239;28;20103;-58
2021/01/16 10:25:21;;;;;;;5.97;3.53;;;23.60;26.00;;;;;;5107553;28;20143;-59
2021/01/16 10:27:50;;;;;;;3.75;3.45;;;23.60;26.00;;;;;;5108384;28;20127;-59
2021/01/16 10:30:21;;;;;;;3.17;2.97;;;23.60;26.00;;;;;;5107689;28;20051;-59
2021/01/16 10:32:49;;;;;;;3.45;3.15;;;23.60;25.90;;;;;;5107708;28;20093;-58
2021/01/16 10:35:28;;;;;;;3.60;3.33;;;23.70;26.00;;;;;;5107493;28;20051;-58
2021/01/16 10:37:57;;;;;;;3.33;3.03;;;23.60;25.90;;;;;;5107591;28;20067;-59
2021/01/16 10:40:24;;;;;;;3.20;2.90;;;23.60;25.90;;;;;;5106689;28;20051;-59
2021/01/16 10:42:54;;;;;;;3.97;3.67;;;23.60;25.90;;;;;;5090243;28;20097;-58
2021/01/16 10:45:30;;;;;;;2.97;2.78;;;23.60;25.90;;;;;;5088999;28;20387;-59
2021/01/16 10:48:19;;;;;;;3.75;3.45;;;23.70;25.90;;;;;;5108071;28;20070;-59
2021/01/16 10:50:47;;;;;;;3.08;2.83;;;23.70;25.90;;;;;;5107352;28;20497;-59
2021/01/16 10:53:14;;;;;;;3.47;3.17;;;23.70;25.90;;;;;;5107517;28;20075;-59
2021/01/16 10:55:55;;;;;;;3.22;2.92;;;23.70;25.80;;;;;;5107938;28;20534;-59
2021/01/16 10:58:24;;;;;;;2.80;2.60;;;23.70;25.80;;;;;;5107765;28;20082;-59
2021/01/16 11:00:57;;;;;;;3.22;3.03;;;23.70;25.80;;;;;;5107357;28;20134;-59
2021/01/16 11:03:27;;;;;;;3.10;2.78;;;23.60;25.80;;;;;;5090793;28;20043;-59
2021/01/16 11:05:56;;;;;;;2.33;2.22;;;23.70;25.70;;;;;;5093179;28;20152;-59
2021/01/16 11:08:28;;;;;;;3.28;2.97;;;23.70;25.70;;;;;;5111730;28;20039;-58
2021/01/16 11:10:55;;;;;;;3.00;2.80;;;23.70;25.60;;;;;;5111303;28;20086;-59
2021/01/16 11:13:25;;;;;;;2.80;2.60;;;23.70;25.60;;;;;;5112255;28;20094;-59
2021/01/16 11:15:55;;;;;;;3.72;3.42;;;23.80;25.60;;;;;;5111092;28;20043;-57
2021/01/16 11:18:30;;;;;;;3.05;2.85;;;23.80;25.60;;;;;;5111491;28;20124;-59
2021/01/16 11:21:03;;;;;;;3.20;2.90;;;23.70;25.60;;;;;;5111141;28;20079;-60
2021/01/16 11:23:36;;;;;;;3.35;3.05;;;23.70;25.50;;;;;;5111418;28;20467;-59
2021/01/16 11:26:08;;;;;;;3.03;2.75;;;23.70;25.60;;;;;;5111331;28;20043;-59
2021/01/16 11:28:53;;;;;;;3.50;3.20;;;23.60;25.60;;;;;;5076424;28;20135;-59
2021/01/16 11:31:26;;;;;;;2.78;2.58;;;23.60;25.60;;;;;;5111255;28;20131;-59
2021/01/16 11:34:21;;;;;;;2.95;2.75;;;23.60;25.60;;;;;;5110969;28;20044;-59
2021/01/16 11:36:58;;;;;;;3.45;3.13;;;23.60;25.60;;;;;;5097436;28;20047;-59
2021/01/16 11:39:50;;;;;;;3.28;2.90;;;23.60;25.60;;;;;;5110456;28;20131;-59
2021/01/16 11:42:19;;;;;;;2.35;2.25;;;23.60;25.60;;;;;;5109845;28;20047;-59
2021/01/16 11:44:57;;;;;;;3.03;2.83;;;23.60;25.60;;;;;;5111168;28;20109;-59
2021/01/16 11:47:26;;;;;;;2.63;2.42;;;23.60;25.60;;;;;;5110512;28;20047;-59
2021/01/16 11:49:54;;;;;;;2.75;2.55;;;23.60;25.50;;;;;;5111070;28;20312;-59
2021/01/16 11:52:21;;;;;;;2.90;2.70;;;23.60;25.50;;;;;;5109679;28;20097;-59
2021/01/16 11:54:51;;;;;;;2.90;2.70;;;23.60;25.50;;;;;;5110184;28;20090;-59
2021/01/16 11:57:20;;;;;;;3.72;3.13;;;23.70;25.50;;;;;;5110478;28;20420;-59
2021/01/16 11:59:47;;;;;;;2.78;2.58;;;23.70;25.50;;;;;;5111117;28;20040;-59
2021/01/16 12:02:15;;;;;;;2.88;2.67;;;23.60;25.40;;;;;;5110547;28;20535;-59
2021/01/16 12:04:44;;;;;;;2.65;2.45;;;23.70;25.40;;;;;;5110550;28;20049;-59
2021/01/16 12:07:17;;;;;;;2.25;2.15;;;23.70;25.40;;;;;;5109663;28;20120;-59
2021/01/16 12:09:45;;;;;;;2.25;2.15;;;23.70;25.40;;;;;;5110289;28;20104;-59
2021/01/16 12:12:31;;;;;;;2.15;2.05;;;23.70;25.30;;;;;;5110683;28;20040;-59
2021/01/16 12:15:03;;;;;;;2.60;2.40;;;23.70;25.30;;;;;;5109282;28;20043;-59
2021/01/16 12:17:30;;;;;;;2.83;2.63;;;23.70;25.30;;;;;;5109881;28;20044;-59
2021/01/16 12:19:58;;;;;;;3.00;2.80;;;23.70;25.30;;;;;;5110504;28;20043;-59
2021/01/16 12:22:29;;;;;;;2.60;2.40;;;23.60;25.20;;;;;;5109837;28;20599;-59
2021/01/16 12:24:56;;;;;;;2.65;2.45;;;23.60;25.20;;;;;;5110255;28;20120;-59
2021/01/16 12:27:23;;;;;;;2.50;2.30;;;23.60;25.20;;;;;;5109937;28;20130;-59
2021/01/16 12:29:54;;;;;;;2.30;2.20;;;23.60;25.20;;;;;;5109980;28;20464;-59
2021/01/16 12:32:21;;;;;;;2.70;2.50;;;23.60;25.20;;;;;;5110207;28;20065;-59
2021/01/16 12:34:51;;;;;;;2.35;2.15;;;23.60;25.20;;;;;;5091805;28;20066;-59
2021/01/16 12:37:33;;;;;;;2.70;2.50;;;23.60;25.20;;;;;;5110653;28;20043;-59
2021/01/16 12:40:03;;;;;;;2.75;2.55;;;23.60;25.20;;;;;;5109704;28;20053;-59
2021/01/16 12:42:31;;;;;;;2.53;2.40;;;23.60;25.20;;;;;;5091377;28;20047;-59
2021/01/16 12:45:08;;;;;;;2.85;2.65;;;23.60;25.20;;;;;;5110152;28;20469;-59
2021/01/16 12:47:36;;;;;;;2.63;2.40;;;23.60;25.20;;;;;;5109978;28;20081;-59
2021/01/16 12:50:05;;;;;;;2.38;2.17;;;23.60;25.60;;;;;;5110234;28;20043;-59
2021/01/16 12:52:32;;;;;;;2.42;2.22;;;23.60;25.10;;;;;;5109559;28;20101;-59
2021/01/16 12:55:05;;;;;;;2.35;2.15;;;23.70;25.10;;;;;;5108510;28;20043;-59
2021/01/16 12:57:41;;;;;;;2.35;2.20;;;23.70;25.10;;;;;;5109898;28;20036;-59
2021/01/16 13:00:15;;;;;;;2.53;2.33;;;23.60;25.10;;;;;;5109703;28;20134;-59
2021/01/16 13:02:42;;;;;;;2.70;2.50;;;23.70;25.00;;;;;;5109520;28;20054;-59
2021/01/16 13:05:11;;;;;;;2.70;2.50;;;23.70;25.00;;;;;;5109224;28;20081;-59
2021/01/16 13:07:39;;;;;;;2.85;2.65;;;23.60;24.90;;;;;;5108926;28;20201;-60
2021/01/16 13:10:08;;;;;;;3.22;2.42;;;23.60;24.90;;;;;;5109922;28;20164;-59
2021/01/16 13:12:40;;;;;;;2.83;2.40;;;23.60;25.00;;;;;;5109008;28;20275;-59